Time;durP1;ratioP1;P1;durP2;ratioP2;P2;SDS_P1;SDS_P2;PMS_P1;PMS_P2;Temp;Humidity;BMP_temperature;BMP_pressure;BME280_temperature;BME280_humidity;BME280_pressure;Samples;Min_cycle;Max_cycle;Signal;HPM_P1;HPM_P2
2020/12/17 00:00:03;;;;;;;19.98;14.63;;;;;;;;;;4982862;28;20228;-91
2020/12/17 00:02:30;;;;;;;19.15;14.57;;;;;;;;;;4982897;28;20212;-91
2020/12/17 00:04:57;;;;;;;18.83;12.95;;;;;;;;;;4982914;28;20199;-92
2020/12/17 00:07:24;;;;;;;21.73;15.68;;;;;;;;;;4982453;28;20221;-90
2020/12/17 00:09:51;;;;;;;21.73;15.20;;;;;;;;;;4982612;28;20476;-92
2020/12/17 00:12:18;;;;;;;21.00;14.70;;;;;;;;;;4982594;28;20189;-92
2020/12/17 00:14:45;;;;;;;18.85;15.60;;;;;;;;;;4982532;28;20283;-91
2020/12/17 00:17:12;;;;;;;17.63;12.63;;;;;;;;;;4982378;28;20193;-90
2020/12/17 00:19:40;;;;;;;23.05;15.52;;;;;;;;;;4982435;28;20192;-91
2020/12/17 00:22:07;;;;;;;18.42;14.65;;;;;;;;;;4982110;28;20205;-90
2020/12/17 00:24:35;;;;;;;21.90;15.32;;;;;;;;;;4982146;28;20177;-91
2020/12/17 00:27:02;;;;;;;16.35;13.55;;;;;;;;;;4982264;28;20181;-91
2020/12/17 00:29:29;;;;;;;20.42;14.40;;;;;;;;;;4982291;28;20216;-93
2020/12/17 00:31:56;;;;;;;15.85;12.70;;;;;;;;;;4982601;28;20465;-91
2020/12/17 00:34:23;;;;;;;16.20;12.57;;;;;;;;;;4982174;28;20617;-94
2020/12/17 00:36:54;;;;;;;13.90;11.77;;;;;;;;;;4982568;28;20247;-91
2020/12/17 00:39:23;;;;;;;17.33;12.98;;;;;;;;;;4982559;28;20215;-93
2020/12/17 00:41:50;;;;;;;13.82;11.00;;;;;;;;;;4981899;28;20195;-93
2020/12/17 00:44:17;;;;;;;15.63;11.98;;;;;;;;;;4982967;28;20193;-94
2020/12/17 00:46:44;;;;;;;15.40;10.77;;;;;;;;;;4983032;28;20205;-94
2020/12/17 00:49:11;;;;;;;13.77;9.68;;;;;;;;;;4982044;28;20208;-94
2020/12/17 00:51:38;;;;;;;13.52;10.60;;;;;;;;;;4982286;28;20208;-90
2020/12/17 00:54:06;;;;;;;12.15;9.80;;;;;;;;;;4984694;28;20196;-93
2020/12/17 00:56:33;;;;;;;12.70;9.20;;;;;;;;;;4983400;28;20200;-94
2020/12/17 00:59:00;;;;;;;16.88;11.20;;;;;;;;;;4982496;28;20208;-93
2020/12/17 01:01:27;;;;;;;15.35;9.45;;;;;;;;;;4981672;28;20283;-93
2020/12/17 01:03:54;;;;;;;13.48;10.13;;;;;;;;;;4982514;28;20197;-94
2020/12/17 01:06:21;;;;;;;12.40;10.35;;;;;;;;;;4983728;28;20228;-93
2020/12/17 01:08:48;;;;;;;13.45;11.55;;;;;;;;;;4982422;28;20275;-92
2020/12/17 01:11:17;;;;;;;14.20;10.38;;;;;;;;;;4982233;28;20235;-93
2020/12/17 01:13:44;;;;;;;12.52;9.52;;;;;;;;;;4982910;28;20335;-93
2020/12/17 01:16:11;;;;;;;13.45;10.93;;;;;;;;;;4983070;28;20259;-93
2020/12/17 01:18:38;;;;;;;11.45;9.38;;;;;;;;;;4982155;28;20229;-92
2020/12/17 01:21:06;;;;;;;13.73;10.02;;;;;;;;;;4981961;28;20193;-93
2020/12/17 01:23:33;;;;;;;11.50;8.55;;;;;;;;;;4981620;28;20279;-93
2020/12/17 01:26:00;;;;;;;9.93;8.93;;;;;;;;;;4981029;28;20344;-93
2020/12/17 01:28:27;;;;;;;10.70;9.60;;;;;;;;;;4981158;28;20280;-90
2020/12/17 01:30:54;;;;;;;14.05;9.50;;;;;;;;;;4980784;28;20209;-88
2020/12/17 01:33:21;;;;;;;12.15;9.35;;;;;;;;;;4980794;28;20275;-89
2020/12/17 01:35:48;;;;;;;12.68;10.73;;;;;;;;;;4980764;28;20271;-89
2020/12/17 01:38:15;;;;;;;12.07;10.73;;;;;;;;;;4979858;28;20215;-89
2020/12/17 01:40:46;;;;;;;12.38;9.30;;;;;;;;;;4981436;28;20203;-89
2020/12/17 01:43:14;;;;;;;10.13;9.00;;;;;;;;;;4980917;28;20196;-89
2020/12/17 01:45:42;;;;;;;13.77;11.80;;;;;;;;;;4980913;28;20489;-90
2020/12/17 01:48:09;;;;;;;12.65;9.85;;;;;;;;;;4979996;28;20227;-89
2020/12/17 01:50:36;;;;;;;13.07;9.25;;;;;;;;;;4980633;28;20213;-90
2020/12/17 01:53:03;;;;;;;11.90;9.82;;;;;;;;;;4980729;28;20193;-88
2020/12/17 01:55:32;;;;;;;18.92;12.27;;;;;;;;;;4980382;28;20188;-89
2020/12/17 01:58:01;;;;;;;15.13;11.80;;;;;;;;;;4980412;28;20177;-91
2020/12/17 02:00:32;;;;;;;12.70;10.43;;;;;;;;;;4980392;28;20192;-91
2020/12/17 02:03:00;;;;;;;12.55;10.65;;;;;;;;;;4980662;28;20181;-90
2020/12/17 02:05:27;;;;;;;14.40;11.73;;;;;;;;;;4980602;28;20181;-89
2020/12/17 02:07:56;;;;;;;17.33;12.98;;;;;;;;;;4980527;28;20287;-89
2020/12/17 02:10:23;;;;;;;12.13;9.65;;;;;;;;;;4980676;28;20240;-90
2020/12/17 02:12:50;;;;;;;12.38;9.57;;;;;;;;;;4981406;28;20212;-91
2020/12/17 02:15:19;;;;;;;12.75;9.93;;;;;;;;;;4980324;28;20470;-90
2020/12/17 02:17:47;;;;;;;11.43;9.52;;;;;;;;;;4980351;28;20186;-89
2020/12/17 02:20:15;;;;;;;13.57;11.27;;;;;;;;;;4980192;28;20586;-90
2020/12/17 02:22:43;;;;;;;12.73;10.13;;;;;;;;;;4980964;28;20455;-90
2020/12/17 02:25:13;;;;;;;11.43;9.77;;;;;;;;;;4980608;28;20196;-90
2020/12/17 02:27:41;;;;;;;13.40;10.75;;;;;;;;;;4980618;28;20204;-89
2020/12/17 02:30:10;;;;;;;12.85;10.50;;;;;;;;;;4979730;28;20291;-89
2020/12/17 02:32:37;;;;;;;12.65;9.77;;;;;;;;;;4980143;28;20593;-90
2020/12/17 02:35:05;;;;;;;11.20;9.93;;;;;;;;;;4979988;28;20206;-89
2020/12/17 02:37:32;;;;;;;13.85;10.35;;;;;;;;;;4979470;28;20279;-90
2020/12/17 02:39:59;;;;;;;14.32;9.38;;;;;;;;;;4979967;28;20586;-90
2020/12/17 02:42:26;;;;;;;11.55;9.75;;;;;;;;;;4979842;28;20207;-90
2020/12/17 02:44:54;;;;;;;11.40;9.35;;;;;;;;;;4979829;28;20193;-90
2020/12/17 02:47:21;;;;;;;14.52;11.15;;;;;;;;;;4980233;28;20280;-90
2020/12/17 02:49:48;;;;;;;13.75;11.13;;;;;;;;;;4979043;28;20444;-89
2020/12/17 02:52:15;;;;;;;13.25;10.65;;;;;;;;;;4979766;28;20550;-91
2020/12/17 02:54:42;;;;;;;11.63;8.77;;;;;;;;;;4980185;28;20200;-91
2020/12/17 02:57:09;;;;;;;12.25;10.63;;;;;;;;;;4980482;28;20259;-91
2020/12/17 02:59:37;;;;;;;12.02;10.02;;;;;;;;;;4979816;28;20279;-90
2020/12/17 03:02:04;;;;;;;11.95;10.13;;;;;;;;;;4979503;28;20185;-91
2020/12/17 03:04:31;;;;;;;12.57;9.68;;;;;;;;;;4979736;28;20196;-90
2020/12/17 03:06:58;;;;;;;15.27;11.10;;;;;;;;;;4979506;28;20224;-90
2020/12/17 03:09:25;;;;;;;12.73;10.18;;;;;;;;;;4979726;28;20189;-93
2020/12/17 03:11:52;;;;;;;15.57;12.20;;;;;;;;;;4979589;28;20204;-90
2020/12/17 03:14:18;;;;;;;12.38;11.00;;;;;;;;;;4979157;28;20201;-91
2020/12/17 03:16:46;;;;;;;14.60;10.75;;;;;;;;;;4980399;28;20200;-91
2020/12/17 03:19:13;;;;;;;13.57;11.55;;;;;;;;;;4979345;28;20185;-89
2020/12/17 03:21:40;;;;;;;12.27;9.95;;;;;;;;;;4979551;28;20570;-90
2020/12/17 03:24:09;;;;;;;13.18;10.05;;;;;;;;;;4980137;28;20200;-89
2020/12/17 03:26:36;;;;;;;11.85;9.80;;;;;;;;;;4980022;28;20335;-90
2020/12/17 03:29:03;;;;;;;13.63;10.63;;;;;;;;;;4979975;28;20564;-89
2020/12/17 03:31:30;;;;;;;13.60;10.32;;;;;;;;;;4979095;28;20208;-89
2020/12/17 03:33:57;;;;;;;18.00;12.40;;;;;;;;;;4979309;28;20208;-90
2020/12/17 03:36:24;;;;;;;14.52;11.13;;;;;;;;;;4979320;28;20409;-90
2020/12/17 03:38:52;;;;;;;13.77;10.75;;;;;;;;;;4979135;28;20180;-87
2020/12/17 03:41:19;;;;;;;16.60;11.38;;;;;;;;;;4979842;28;20207;-88
2020/12/17 03:43:45;;;;;;;14.65;11.32;;;;;;;;;;4979374;28;20200;-90
2020/12/17 03:46:12;;;;;;;14.73;11.32;;;;;;;;;;4979385;28;20230;-88
2020/12/17 03:48:39;;;;;;;12.65;10.38;;;;;;;;;;4979169;28;20550;-89
2020/12/17 03:51:07;;;;;;;13.15;9.50;;;;;;;;;;4979732;28;20222;-88
2020/12/17 03:53:34;;;;;;;12.77;10.10;;;;;;;;;;4978978;28;20196;-90
2020/12/17 03:56:01;;;;;;;12.10;9.40;;;;;;;;;;4979216;28;20199;-90
2020/12/17 03:58:28;;;;;;;12.32;10.65;;;;;;;;;;4979251;28;20195;-89
2020/12/17 04:00:55;;;;;;;11.95;10.73;;;;;;;;;;4979737;28;20181;-87
2020/12/17 04:03:22;;;;;;;10.60;9.18;;;;;;;;;;4982668;28;20185;-88
2020/12/17 04:05:49;;;;;;;11.48;9.25;;;;;;;;;;4982530;28;20279;-88
2020/12/17 04:08:17;;;;;;;10.82;9.07;;;;;;;;;;4982162;28;20592;-88
2020/12/17 04:10:43;;;;;;;10.10;8.45;;;;;;;;;;4982496;28;20215;-89
2020/12/17 04:13:10;;;;;;;10.68;9.55;;;;;;;;;;4982878;28;20204;-87
2020/12/17 04:15:37;;;;;;;11.88;9.82;;;;;;;;;;4933838;28;20214;-88
2020/12/17 04:18:04;;;;;;;14.88;10.55;;;;;;;;;;4982487;28;20180;-88
2020/12/17 04:20:31;;;;;;;13.07;10.27;;;;;;;;;;4982140;28;20191;-88
2020/12/17 04:22:58;;;;;;;11.75;10.30;;;;;;;;;;4981729;28;20218;-87
2020/12/17 04:25:26;;;;;;;14.63;10.73;;;;;;;;;;4982323;28;20185;-86
2020/12/17 04:27:53;;;;;;;17.83;11.40;;;;;;;;;;4982954;28;20208;-89
2020/12/17 04:30:20;;;;;;;10.65;9.40;;;;;;;;;;4981772;28;20196;-90
2020/12/17 04:32:47;;;;;;;13.20;10.95;;;;;;;;;;4981554;28;20236;-88
2020/12/17 04:35:14;;;;;;;18.45;11.70;;;;;;;;;;4982435;28;20198;-89
2020/12/17 04:37:41;;;;;;;13.98;11.70;;;;;;;;;;4981581;28;20238;-89
2020/12/17 04:40:08;;;;;;;15.95;11.40;;;;;;;;;;4982085;28;20201;-91
2020/12/17 04:42:36;;;;;;;15.13;10.52;;;;;;;;;;4981822;28;20210;-88
2020/12/17 04:45:03;;;;;;;14.77;10.90;;;;;;;;;;4982035;28;20516;-89
2020/12/17 04:47:31;;;;;;;14.32;10.27;;;;;;;;;;4981641;28;20228;-89
2020/12/17 04:50:06;;;;;;;13.55;10.43;;;;;;;;;;4982601;28;20193;-91
2020/12/17 04:52:36;;;;;;;12.40;10.55;;;;;;;;;;4981855;28;20219;-89
2020/12/17 04:55:05;;;;;;;11.65;9.20;;;;;;;;;;4981924;28;20200;-91
2020/12/17 04:57:34;;;;;;;18.63;10.63;;;;;;;;;;4981722;28;20189;-90
2020/12/17 05:00:01;;;;;;;11.55;9.93;;;;;;;;;;4981926;28;20197;-89
2020/12/17 05:02:28;;;;;;;13.25;11.15;;;;;;;;;;4981618;28;20199;-87
2020/12/17 05:04:56;;;;;;;14.70;9.57;;;;;;;;;;4982487;28;20195;-91
2020/12/17 05:07:24;;;;;;;11.77;9.45;;;;;;;;;;4981402;28;20230;-87
2020/12/17 05:09:52;;;;;;;14.23;10.02;;;;;;;;;;4981513;28;20539;-89
2020/12/17 05:12:19;;;;;;;14.07;11.38;;;;;;;;;;4981188;28;20271;-88
2020/12/17 05:14:48;;;;;;;12.32;10.27;;;;;;;;;;4981896;28;20199;-89
2020/12/17 05:17:15;;;;;;;11.38;9.57;;;;;;;;;;4981453;28;20195;-88
2020/12/17 05:19:42;;;;;;;11.50;9.23;;;;;;;;;;4981146;28;20215;-91
2020/12/17 05:22:13;;;;;;;11.63;10.43;;;;;;;;;;4981927;28;20184;-92
2020/12/17 05:24:44;;;;;;;11.93;9.73;;;;;;;;;;4981367;28;20188;-91
2020/12/17 05:27:11;;;;;;;14.23;10.75;;;;;;;;;;4982142;28;20204;-91
2020/12/17 05:29:39;;;;;;;12.02;9.63;;;;;;;;;;4981815;28;20199;-93
2020/12/17 05:32:12;;;;;;;12.90;10.23;;;;;;;;;;4981279;28;20232;-92
2020/12/17 05:34:40;;;;;;;12.38;10.75;;;;;;;;;;4922464;29;20198;-92
2020/12/17 05:37:07;;;;;;;13.63;11.15;;;;;;;;;;4977267;28;20240;-92
2020/12/17 05:39:35;;;;;;;13.48;11.85;;;;;;;;;;4981495;28;20196;-92
2020/12/17 05:42:02;;;;;;;13.48;11.82;;;;;;;;;;4980212;28;20201;-92
2020/12/17 05:44:31;;;;;;;11.85;9.93;;;;;;;;;;4980960;28;20207;-93
2020/12/17 05:46:58;;;;;;;14.25;10.23;;;;;;;;;;4981648;28;20196;-91
2020/12/17 05:49:28;;;;;;;14.02;11.15;;;;;;;;;;4980620;28;20195;-92
2020/12/17 05:52:14;;;;;;;15.23;12.30;;;;;;;;;;4980817;28;20293;-91
2020/12/17 05:54:44;;;;;;;12.45;10.90;;;;;;;;;;4980744;28;20184;-92
2020/12/17 05:57:13;;;;;;;11.40;9.35;;;;;;;;;;4978743;28;20228;-91
2020/12/17 05:59:40;;;;;;;11.63;10.25;;;;;;;;;;4980368;28;20199;-92
2020/12/17 06:02:25;;;;;;;13.30;9.57;;;;;;;;;;4981345;28;20460;-92
2020/12/17 06:05:07;;;;;;;14.23;11.35;;;;;;;;;;4980476;28;20234;-91
2020/12/17 06:07:47;;;;;;;10.52;8.77;;;;;;;;;;4980745;28;20220;-89
2020/12/17 06:10:19;;;;;;;13.48;10.57;;;;;;;;;;4981169;28;20270;-90
2020/12/17 06:12:48;;;;;;;13.32;10.85;;;;;;;;;;4980249;28;20348;-90
2020/12/17 06:15:19;;;;;;;13.45;10.52;;;;;;;;;;4980651;28;20530;-91
2020/12/17 06:17:52;;;;;;;12.07;9.90;;;;;;;;;;4981051;28;20196;-92
2020/12/17 06:20:21;;;;;;;12.30;10.68;;;;;;;;;;4980673;28;20196;-89
2020/12/17 06:22:55;;;;;;;11.02;9.48;;;;;;;;;;4980235;28;20287;-90
2020/12/17 06:25:24;;;;;;;13.98;9.95;;;;;;;;;;4980453;28;20176;-88
2020/12/17 06:27:52;;;;;;;11.88;10.65;;;;;;;;;;4979884;28;20200;-90
2020/12/17 06:30:22;;;;;;;13.00;10.10;;;;;;;;;;4980118;28;20259;-89
2020/12/17 06:32:50;;;;;;;13.75;11.23;;;;;;;;;;4980505;28;20235;-90
2020/12/17 06:35:39;;;;;;;10.85;9.45;;;;;;;;;;4979843;28;20230;-91
2020/12/17 06:38:08;;;;;;;11.10;8.85;;;;;;;;;;4980271;28;20204;-90
2020/12/17 06:40:35;;;;;;;12.35;9.73;;;;;;;;;;4980698;28;20444;-88
2020/12/17 06:43:03;;;;;;;13.88;11.45;;;;;;;;;;4979933;28;20192;-90
2020/12/17 06:45:33;;;;;;;14.43;10.25;;;;;;;;;;4980126;28;20181;-90
2020/12/17 06:48:05;;;;;;;12.35;10.55;;;;;;;;;;4979727;28;20181;-91
2020/12/17 06:50:39;;;;;;;11.90;10.07;;;;;;;;;;4979746;28;20259;-93
2020/12/17 06:53:10;;;;;;;11.77;9.45;;;;;;;;;;4980004;28;20224;-91
2020/12/17 06:55:46;;;;;;;12.32;10.43;;;;;;;;;;4980538;28;20258;-89
2020/12/17 06:58:20;;;;;;;11.38;9.57;;;;;;;;;;4980605;28;20195;-89
2020/12/17 07:00:47;;;;;;;12.20;10.13;;;;;;;;;;4979727;28;20202;-88
2020/12/17 07:03:46;;;;;;;10.23;8.68;;;;;;;;;;4979984;28;20196;-89
2020/12/17 07:06:17;;;;;;;10.15;9.15;;;;;;;;;;4979824;28;20609;-90
2020/12/17 07:08:45;;;;;;;10.27;8.48;;;;;;;;;;4979657;28;20219;-89
2020/12/17 07:11:38;;;;;;;10.70;9.60;;;;;;;;;;4979789;28;20204;-90
2020/12/17 07:14:06;;;;;;;13.10;10.93;;;;;;;;;;4979641;28;20478;-89
2020/12/17 07:16:35;;;;;;;11.18;8.77;;;;;;;;;;4980280;28;20201;-89
2020/12/17 07:19:20;;;;;;;11.23;9.75;;;;;;;;;;4980029;28;20196;-92
2020/12/17 07:22:12;;;;;;;11.98;10.73;;;;;;;;;;4980014;28;20201;-91
2020/12/17 07:24:41;;;;;;;10.95;9.85;;;;;;;;;;4973311;28;20215;-92
2020/12/17 07:27:11;;;;;;;12.20;9.85;;;;;;;;;;4979576;28;20279;-88
2020/12/17 07:29:42;;;;;;;11.50;8.68;;;;;;;;;;4979518;28;20191;-88
2020/12/17 07:32:33;;;;;;;11.20;9.77;;;;;;;;;;4979129;28;20200;-90
2020/12/17 07:35:21;;;;;;;12.98;9.75;;;;;;;;;;4979334;28;20432;-90
2020/12/17 07:37:53;;;;;;;10.90;9.88;;;;;;;;;;4982206;28;20212;-87
2020/12/17 07:40:30;;;;;;;10.88;9.32;;;;;;;;;;4983123;28;20235;-88
2020/12/17 07:43:07;;;;;;;9.35;8.43;;;;;;;;;;4983552;28;20192;-88
2020/12/17 07:45:53;;;;;;;12.55;10.73;;;;;;;;;;4982796;28;20196;-88
2020/12/17 07:48:43;;;;;;;11.43;9.70;;;;;;;;;;4983106;28;20199;-92
2020/12/17 07:51:43;;;;;;;11.63;9.98;;;;;;;;;;4982718;28;20235;-92
2020/12/17 07:54:11;;;;;;;9.23;8.20;;;;;;;;;;4976480;28;20200;-92
2020/12/17 07:56:41;;;;;;;10.63;9.52;;;;;;;;;;4983123;28;20546;-92
2020/12/17 07:59:08;;;;;;;13.23;10.63;;;;;;;;;;4982852;28;20184;-90
2020/12/17 08:01:35;;;;;;;11.05;9.48;;;;;;;;;;4983631;28;20270;-92
2020/12/17 08:04:02;;;;;;;14.50;10.35;;;;;;;;;;4982759;28;20189;-90
2020/12/17 08:06:30;;;;;;;11.52;9.93;;;;;;;;;;4982950;28;20593;-90
2020/12/17 08:08:59;;;;;;;10.73;9.65;;;;;;;;;;4983214;28;20308;-92
2020/12/17 08:11:27;;;;;;;10.73;9.10;;;;;;;;;;4982795;28;20211;-91
2020/12/17 08:14:00;;;;;;;10.63;9.18;;;;;;;;;;4982539;28;20235;-91
2020/12/17 08:16:27;;;;;;;12.10;9.05;;;;;;;;;;4982610;28;20254;-91
2020/12/17 08:18:57;;;;;;;13.05;9.38;;;;;;;;;;4982252;28;20181;-91
2020/12/17 08:21:25;;;;;;;9.55;8.65;;;;;;;;;;4982207;28;20184;-91
2020/12/17 08:23:53;;;;;;;11.10;9.57;;;;;;;;;;4982122;28;20462;-92
2020/12/17 08:26:22;;;;;;;10.23;9.18;;;;;;;;;;4982529;28;20181;-92
2020/12/17 08:28:52;;;;;;;10.20;8.38;;;;;;;;;;4983092;28;20227;-91
2020/12/17 08:31:21;;;;;;;11.27;9.38;;;;;;;;;;4982302;28;20220;-90
2020/12/17 08:33:52;;;;;;;10.98;9.82;;;;;;;;;;4982759;28;20336;-90
2020/12/17 08:36:23;;;;;;;10.30;8.40;;;;;;;;;;4982091;28;20236;-91
2020/12/17 08:38:58;;;;;;;10.38;9.38;;;;;;;;;;4982676;28;20205;-90
2020/12/17 08:41:29;;;;;;;11.50;10.05;;;;;;;;;;4982325;28;20189;-89
2020/12/17 08:44:02;;;;;;;10.00;8.40;;;;;;;;;;4982233;28;20185;-92
2020/12/17 08:46:33;;;;;;;10.55;9.05;;;;;;;;;;4981804;28;20275;-92
2020/12/17 08:49:02;;;;;;;11.90;9.38;;;;;;;;;;4981442;28;20275;-92
2020/12/17 08:51:29;;;;;;;11.90;10.48;;;;;;;;;;4982336;28;20210;-92
2020/12/17 08:53:56;;;;;;;13.27;9.88;;;;;;;;;;4982455;28;20230;-92
2020/12/17 08:56:23;;;;;;;10.85;9.55;;;;;;;;;;4981960;28;20200;-91
2020/12/17 08:58:53;;;;;;;11.57;9.80;;;;;;;;;;4982709;28;20208;-90
2020/12/17 09:01:29;;;;;;;10.85;9.07;;;;;;;;;;4982471;28;20208;-92
2020/12/17 09:03:57;;;;;;;10.82;9.10;;;;;;;;;;4982532;28;20275;-91
2020/12/17 09:06:30;;;;;;;11.02;9.80;;;;;;;;;;4982477;28;20220;-94
2020/12/17 09:09:19;;;;;;;10.18;9.18;;;;;;;;;;4983747;28;20200;-93
2020/12/17 09:16:14;;;;;;;11.30;9.02;;;;;;;;;;4907670;29;20329;-94
2020/12/17 09:18:55;;;;;;;11.40;9.50;;;;;;;;;;4905578;29;20222;-94
2020/12/17 09:22:01;;;;;;;11.35;9.05;;;;;;;;;;4905794;29;20213;-93
2020/12/17 09:24:29;;;;;;;13.07;11.20;;;;;;;;;;4851052;29;20230;-95
2020/12/17 09:27:15;;;;;;;12.48;9.85;;;;;;;;;;4851185;29;20475;-94
2020/12/17 09:29:42;;;;;;;13.07;9.82;;;;;;;;;;4849483;29;20258;-93
2020/12/17 09:33:05;;;;;;;9.98;8.95;;;;;;;;;;4852398;29;20201;-94
2020/12/17 09:35:35;;;;;;;9.77;8.73;;;;;;;;;;4795203;29;20488;-94
2020/12/17 09:38:08;;;;;;;12.70;9.10;;;;;;;;;;4794432;30;20211;-94
2020/12/17 09:40:37;;;;;;;9.55;8.10;;;;;;;;;;4793932;30;20219;-93
2020/12/17 09:43:06;;;;;;;11.85;9.02;;;;;;;;;;4791363;29;20683;-91
2020/12/17 09:45:34;;;;;;;12.02;8.52;;;;;;;;;;4792213;29;20219;-91
2020/12/17 09:48:13;;;;;;;10.48;8.40;;;;;;;;;;4791114;29;20543;-90
2020/12/17 09:50:52;;;;;;;12.65;9.05;;;;;;;;;;4791869;30;20225;-90
2020/12/17 09:53:20;;;;;;;12.32;9.38;;;;;;;;;;4844071;29;20225;-91
2020/12/17 09:55:47;;;;;;;9.45;8.10;;;;;;;;;;4846760;29;20206;-89
2020/12/17 09:58:14;;;;;;;10.05;8.93;;;;;;;;;;4846731;29;20245;-89
2020/12/17 10:00:41;;;;;;;10.32;8.07;;;;;;;;;;4874029;29;20200;-89
2020/12/17 10:03:08;;;;;;;12.00;8.32;;;;;;;;;;4878468;29;20571;-91
2020/12/17 10:05:35;;;;;;;10.13;9.05;;;;;;;;;;4880158;29;20618;-87
2020/12/17 10:08:04;;;;;;;9.27;8.25;;;;;;;;;;4966539;28;20196;-87
2020/12/17 10:10:33;;;;;;;12.43;10.73;;;;;;;;;;4972901;28;20567;-88
2020/12/17 10:13:00;;;;;;;9.93;8.82;;;;;;;;;;4987640;28;20248;-88
2020/12/17 10:15:27;;;;;;;10.55;8.20;;;;;;;;;;4991098;28;20190;-89
2020/12/17 10:17:55;;;;;;;9.18;7.47;;;;;;;;;;4979149;28;20197;-89
2020/12/17 10:20:24;;;;;;;10.15;8.85;;;;;;;;;;4979668;28;20189;-89
2020/12/17 10:22:51;;;;;;;11.55;8.90;;;;;;;;;;4979363;28;20271;-88
2020/12/17 10:25:23;;;;;;;11.23;10.02;;;;;;;;;;4979481;28;20191;-88
2020/12/17 10:27:52;;;;;;;10.07;7.93;;;;;;;;;;4979559;28;20482;-88
2020/12/17 10:30:19;;;;;;;10.40;8.15;;;;;;;;;;4979573;28;20192;-88
2020/12/17 10:32:46;;;;;;;11.35;8.60;;;;;;;;;;4979369;28;20192;-88
2020/12/17 10:35:13;;;;;;;12.45;8.88;;;;;;;;;;4979163;28;20228;-88
2020/12/17 10:37:41;;;;;;;11.55;7.75;;;;;;;;;;4976983;28;20239;-88
2020/12/17 10:40:09;;;;;;;10.52;8.50;;;;;;;;;;4974831;28;20230;-88
2020/12/17 10:42:38;;;;;;;10.70;8.65;;;;;;;;;;4979658;28;20189;-89
2020/12/17 10:45:06;;;;;;;11.20;8.63;;;;;;;;;;4977681;28;20203;-93
2020/12/17 10:47:33;;;;;;;9.23;7.53;;;;;;;;;;4979248;28;20758;-91
2020/12/17 10:50:00;;;;;;;9.10;8.20;;;;;;;;;;4979573;28;20271;-86
2020/12/17 10:52:27;;;;;;;9.85;8.10;;;;;;;;;;4978603;28;20204;-86
2020/12/17 10:54:54;;;;;;;12.75;10.13;;;;;;;;;;4978725;28;20219;-84
2020/12/17 10:57:22;;;;;;;11.50;9.18;;;;;;;;;;4978642;28;20559;-86
2020/12/17 10:59:49;;;;;;;9.10;7.97;;;;;;;;;;4978574;28;20196;-84
2020/12/17 11:02:16;;;;;;;9.02;8.00;;;;;;;;;;4978650;28;20196;-84
2020/12/17 11:04:44;;;;;;;9.02;8.13;;;;;;;;;;4979111;28;20692;-87
2020/12/17 11:07:11;;;;;;;9.63;8.70;;;;;;;;;;4979038;28;20298;-88
2020/12/17 11:09:38;;;;;;;10.45;8.65;;;;;;;;;;4978765;28;20192;-86
2020/12/17 11:12:05;;;;;;;9.43;7.60;;;;;;;;;;4981125;28;20208;-88
2020/12/17 11:14:32;;;;;;;14.20;8.55;;;;;;;;;;4982725;28;20518;-85
2020/12/17 11:17:03;;;;;;;8.75;7.63;;;;;;;;;;4981543;28;20774;-91
2020/12/17 11:19:32;;;;;;;9.43;8.52;;;;;;;;;;4982463;28;20208;-94
2020/12/17 11:22:20;;;;;;;9.07;8.02;;;;;;;;;;5075451;23;20244;-94
2020/12/17 11:25:09;;;;;;;11.60;9.93;;;;;;;;;;4986668;28;20265;-94
2020/12/17 11:27:41;;;;;;;10.48;8.55;;;;;;;;;;5255648;23;20248;-95
2020/12/17 11:30:08;;;;;;;12.48;8.82;;;;;;;;;;4934076;28;20300;-94
2020/12/17 11:32:36;;;;;;;10.75;9.05;;;;;;;;;;4978988;28;20188;-93
2020/12/17 11:35:06;;;;;;;9.20;8.23;;;;;;;;;;4972090;28;20204;-93
2020/12/17 11:37:33;;;;;;;10.18;7.97;;;;;;;;;;4964398;28;20221;-93
2020/12/17 11:40:00;;;;;;;9.20;8.15;;;;;;;;;;4962143;29;20194;-93
2020/12/17 11:42:28;;;;;;;10.27;9.25;;;;;;;;;;4962041;29;20276;-89
2020/12/17 11:44:55;;;;;;;9.13;8.02;;;;;;;;;;4956441;29;20565;-86
2020/12/17 11:47:33;;;;;;;8.75;7.93;;;;;;;;;;4961918;29;20227;-93
2020/12/17 11:50:01;;;;;;;8.55;7.70;;;;;;;;;;4958274;29;20465;-93
2020/12/17 11:52:28;;;;;;;9.43;8.40;;;;;;;;;;4961649;29;20288;-93
2020/12/17 11:54:55;;;;;;;9.27;7.47;;;;;;;;;;4958870;29;20670;-93
2020/12/17 11:57:22;;;;;;;9.95;8.98;;;;;;;;;;4962065;29;20189;-93
2020/12/17 11:59:49;;;;;;;10.68;8.45;;;;;;;;;;4962064;29;20197;-91
2020/12/17 12:02:16;;;;;;;11.82;9.30;;;;;;;;;;4952645;29;20209;-93
2020/12/17 12:04:43;;;;;;;9.93;7.88;;;;;;;;;;4957583;29;20296;-94
2020/12/17 12:07:11;;;;;;;10.20;7.78;;;;;;;;;;4958142;29;20221;-92
2020/12/17 12:09:38;;;;;;;9.48;7.65;;;;;;;;;;4960326;29;20193;-93
2020/12/17 12:12:05;;;;;;;11.10;8.80;;;;;;;;;;4959866;29;20594;-92
2020/12/17 12:14:32;;;;;;;10.75;8.60;;;;;;;;;;4961139;29;20216;-91
2020/12/17 12:16:59;;;;;;;9.75;7.82;;;;;;;;;;4961307;29;20622;-89
2020/12/17 12:19:26;;;;;;;8.50;7.57;;;;;;;;;;4960409;29;20721;-91
2020/12/17 12:21:54;;;;;;;9.23;8.02;;;;;;;;;;4959271;28;20193;-90
2020/12/17 12:24:22;;;;;;;8.45;7.55;;;;;;;;;;4960255;29;20205;-89
2020/12/17 12:26:49;;;;;;;9.63;8.63;;;;;;;;;;4961352;29;20520;-91
2020/12/17 12:29:16;;;;;;;8.90;7.78;;;;;;;;;;4939661;29;651120;-90
2020/12/17 12:31:43;;;;;;;9.90;8.05;;;;;;;;;;4962087;29;20262;-90
2020/12/17 12:34:10;;;;;;;8.90;7.30;;;;;;;;;;4962565;29;20221;-90
2020/12/17 12:36:37;;;;;;;9.40;7.47;;;;;;;;;;4962134;29;20508;-92
2020/12/17 12:39:04;;;;;;;8.32;6.93;;;;;;;;;;4962467;29;20193;-91
2020/12/17 12:41:32;;;;;;;9.50;7.43;;;;;;;;;;4958450;29;20591;-89
2020/12/17 12:43:59;;;;;;;11.40;7.07;;;;;;;;;;4961608;29;20276;-90
2020/12/17 12:46:26;;;;;;;11.13;9.60;;;;;;;;;;4962112;29;20200;-91
2020/12/17 12:48:55;;;;;;;7.75;6.95;;;;;;;;;;4962478;29;20197;-89
2020/12/17 12:51:22;;;;;;;14.68;8.70;;;;;;;;;;4961913;29;20559;-91
2020/12/17 12:53:49;;;;;;;10.02;9.02;;;;;;;;;;4961695;29;20177;-93
2020/12/17 12:56:24;;;;;;;9.80;8.27;;;;;;;;;;4950890;29;20213;-93
2020/12/17 12:58:52;;;;;;;9.43;8.00;;;;;;;;;;4943664;29;20202;-92
2020/12/17 13:01:36;;;;;;;9.52;8.10;;;;;;;;;;4943615;29;20202;-94
2020/12/17 13:04:03;;;;;;;9.18;7.07;;;;;;;;;;4943964;29;20286;-93
2020/12/17 13:06:30;;;;;;;10.90;7.38;;;;;;;;;;4944065;29;20288;-92
2020/12/17 13:08:57;;;;;;;7.97;7.15;;;;;;;;;;4943979;29;20181;-88
2020/12/17 13:11:25;;;;;;;8.30;7.13;;;;;;;;;;4943007;29;20552;-91
2020/12/17 13:13:53;;;;;;;7.85;7.07;;;;;;;;;;4942885;29;20206;-88
2020/12/17 13:16:25;;;;;;;10.10;6.30;;;;;;;;;;4947361;29;20555;-94
2020/12/17 13:18:53;;;;;;;8.60;7.75;;;;;;;;;;4948488;29;20268;-94
2020/12/17 13:21:21;;;;;;;7.05;6.35;;;;;;;;;;4944009;29;20265;-94
2020/12/17 13:23:50;;;;;;;7.15;5.95;;;;;;;;;;4943623;29;20237;-93
2020/12/17 13:26:18;;;;;;;7.55;6.38;;;;;;;;;;4943486;29;20222;-92
2020/12/17 13:28:45;;;;;;;7.60;6.72;;;;;;;;;;4942772;29;20238;-91
2020/12/17 13:31:13;;;;;;;9.05;6.72;;;;;;;;;;4943215;29;20198;-94
2020/12/17 13:33:40;;;;;;;8.20;7.18;;;;;;;;;;4942556;29;20206;-91
2020/12/17 13:36:08;;;;;;;8.00;7.20;;;;;;;;;;4942684;29;20237;-91
2020/12/17 13:38:35;;;;;;;7.18;5.80;;;;;;;;;;4943298;29;20296;-92
2020/12/17 13:41:02;;;;;;;6.50;5.57;;;;;;;;;;4942791;29;20220;-92
2020/12/17 13:43:29;;;;;;;7.30;6.60;;;;;;;;;;4943199;29;20198;-93
2020/12/17 13:45:56;;;;;;;12.63;8.25;;;;;;;;;;4942186;29;20583;-90
2020/12/17 13:48:24;;;;;;;10.82;8.88;;;;;;;;;;4942896;29;20209;-91
2020/12/17 13:50:51;;;;;;;11.30;9.00;;;;;;;;;;4942409;29;20619;-92
2020/12/17 13:53:18;;;;;;;8.90;8.00;;;;;;;;;;4942402;29;20190;-92
2020/12/17 13:55:45;;;;;;;9.25;8.25;;;;;;;;;;4942224;29;20298;-92
2020/12/17 13:58:12;;;;;;;9.43;8.52;;;;;;;;;;4942277;29;20552;-91
2020/12/17 14:00:40;;;;;;;10.07;9.18;;;;;;;;;;4942635;29;20520;-94
2020/12/17 14:03:06;;;;;;;9.13;8.18;;;;;;;;;;4942902;29;20285;-91
2020/12/17 14:05:35;;;;;;;8.65;7.72;;;;;;;;;;4942443;29;20212;-92
2020/12/17 14:08:02;;;;;;;9.50;8.50;;;;;;;;;;4942628;29;20233;-90
2020/12/17 14:10:30;;;;;;;10.35;9.27;;;;;;;;;;4942430;29;20194;-90
2020/12/17 14:12:57;;;;;;;26.23;9.35;;;;;;;;;;4942387;29;20269;-93
2020/12/17 14:15:24;;;;;;;8.48;7.57;;;;;;;;;;4942462;29;20226;-89
2020/12/17 14:17:51;;;;;;;8.70;7.90;;;;;;;;;;4942469;29;20186;-92
2020/12/17 14:20:19;;;;;;;9.93;7.55;;;;;;;;;;4941980;29;20194;-92
2020/12/17 14:22:47;;;;;;;10.38;7.95;;;;;;;;;;4942276;29;20206;-91
2020/12/17 14:25:14;;;;;;;8.70;7.80;;;;;;;;;;4941951;29;20548;-91
2020/12/17 14:27:41;;;;;;;10.25;7.88;;;;;;;;;;4942067;29;20372;-92
2020/12/17 14:30:09;;;;;;;9.15;8.18;;;;;;;;;;4941885;29;20213;-92
2020/12/17 14:32:36;;;;;;;9.55;8.10;;;;;;;;;;4942077;29;20205;-93
2020/12/17 14:35:06;;;;;;;11.30;8.23;;;;;;;;;;4942187;29;20328;-92
2020/12/17 14:37:33;;;;;;;8.98;7.55;;;;;;;;;;4941393;29;20237;-91
2020/12/17 14:40:02;;;;;;;9.20;8.18;;;;;;;;;;4942377;29;20213;-90
2020/12/17 14:42:29;;;;;;;11.00;8.18;;;;;;;;;;4941618;29;20559;-91
2020/12/17 14:44:56;;;;;;;11.73;7.78;;;;;;;;;;4942239;29;20560;-90